Portada
METAR-TAF:

METAR-TAF

Aeropuertos :

Aeropuerto de Rabat-Salé

Rabat, Marruecos

latitud: 34-03N, longitud: 006-46W, altitud: 84 m

Observación

El informe se hizo hace 24 minutos, a las 23:00 UTC
Viento 3 kt del sur, variando entre este y sur-suroeste
Temperatura 20°C
Humedad 94%
Presión 1018 hPa
Visibilidad: 5000 m
Nubes dispersas a una altura de 1000 ft

METAR: GMME 242300Z 17003KT 080V200 5000 SCT010 20/19 Q1018 NOSIG

Hora: 00:24 (23:24 UTC)

Pronóstico

El informe se hizo hace 6 horas y 24 minutos, a las 17:00 UTC
Pronóstico válido del 24 a las 18 UTC al 25 a las 24 UTC
Viento 8 kt del noroeste
Visibilidad: 8000 m
Temporalmente
del 24 a las 20 UTC al 25 a las 08 UTC
Viento 2 kt con dirección variable
Visibilidad: 3000 m
Cielo nuboso a una altura de 800 ft
neblina

TAF: GMME 241700Z 2418/2524 320008KT 8000 NSC TEMPO 2420/2508 VRB02KT 3000 BR BKN008

Observaciones y pronósticos meteorológicos de más de 4000 aeropuertos (mensajes METAR y TAF).

Los puntos amarillos y rojos representan las estaciones disponibles.

Ponga el ratón en el punto deseado para ver el nombre de la estación.

Haga clic para ver las observaciones y los pronósticos meteorológicos.

Para cambiar el mapa : haga clic en los botones verdes con una cruz de color negro para hacer un zoom, en el botón verde con un guión para alejar o en las flechas verdes para mapas adyacentes.


METAR-TAF: